sensor_id;sensor_type;location;lat;lon;timestamp;temperature;humidity
54824;DHT22;40724;53.196;5.980;2022-07-18T08:30:23;21.10;95.50
54824;DHT22;40724;53.196;5.980;2022-07-18T08:37:42;21.80;94.10
54824;DHT22;40724;53.196;5.980;2022-07-18T08:40:08;21.90;92.60
54824;DHT22;40724;53.196;5.980;2022-07-18T08:42:34;21.90;92.70
54824;DHT22;40724;53.196;5.980;2022-07-18T08:45:01;21.90;92.10
54824;DHT22;40724;53.196;5.980;2022-07-18T08:47:28;22.00;92.00
54824;DHT22;40724;53.196;5.980;2022-07-18T08:49:55;22.00;91.80
54824;DHT22;40724;53.196;5.980;2022-07-18T11:26:23;22.10;91.30
54824;DHT22;40724;53.196;5.980;2022-07-18T12:45:50;25.90;67.00
54824;DHT22;40724;53.196;5.980;2022-07-18T12:50:43;26.80;62.10
54824;DHT22;40724;53.196;5.980;2022-07-18T13:17:39;26.90;60.70
54824;DHT22;40724;53.196;5.980;2022-07-18T13:20:05;27.00;58.90
54824;DHT22;40724;53.196;5.980;2022-07-18T13:22:31;27.00;59.40
54824;DHT22;40724;53.196;5.980;2022-07-18T13:25:08;27.10;59.10
54824;DHT22;40724;53.196;5.980;2022-07-18T14:14:03;27.20;58.50
54824;DHT22;40724;53.196;5.980;2022-07-18T14:16:30;27.50;53.90
54824;DHT22;40724;53.196;5.980;2022-07-18T14:18:56;27.40;53.70
54824;DHT22;40724;53.196;5.980;2022-07-18T14:21:22;27.50;53.10
54824;DHT22;40724;53.196;5.980;2022-07-18T14:23:48;27.50;53.10
54824;DHT22;40724;53.196;5.980;2022-07-18T14:26:14;27.60;52.20
54824;DHT22;40724;53.196;5.980;2022-07-18T14:28:40;27.60;52.60
54824;DHT22;40724;53.196;5.980;2022-07-18T14:31:06;27.60;50.70
54824;DHT22;40724;53.196;5.980;2022-07-18T14:33:32;27.60;50.50
54824;DHT22;40724;53.196;5.980;2022-07-18T14:35:57;27.60;50.70
54824;DHT22;40724;53.196;5.980;2022-07-18T14:38:23;27.60;50.90
54824;DHT22;40724;53.196;5.980;2022-07-18T14:40:49;27.70;49.70
54824;DHT22;40724;53.196;5.980;2022-07-18T14:43:15;27.70;49.10
54824;DHT22;40724;53.196;5.980;2022-07-18T14:45:41;27.70;48.80
54824;DHT22;40724;53.196;5.980;2022-07-18T14:48:07;27.60;48.90
54824;DHT22;40724;53.196;5.980;2022-07-18T14:50:33;27.70;48.90
54824;DHT22;40724;53.196;5.980;2022-07-18T14:52:59;27.60;47.50
54824;DHT22;40724;53.196;5.980;2022-07-18T14:55:25;27.60;47.30
54824;DHT22;40724;53.196;5.980;2022-07-18T14:57:50;27.70;47.30
54824;DHT22;40724;53.196;5.980;2022-07-18T15:00:17;27.80;46.80
54824;DHT22;40724;53.196;5.980;2022-07-18T15:02:42;27.80;47.00
54824;DHT22;40724;53.196;5.980;2022-07-18T15:05:09;27.90;47.00
54824;DHT22;40724;53.196;5.980;2022-07-18T15:07:35;27.90;46.70
54824;DHT22;40724;53.196;5.980;2022-07-18T15:10:01;28.00;46.90
54824;DHT22;40724;53.196;5.980;2022-07-18T15:12:27;28.10;46.90
54824;DHT22;40724;53.196;5.980;2022-07-18T15:14:53;28.10;46.80
54824;DHT22;40724;53.196;5.980;2022-07-18T15:17:22;28.10;46.90
54824;DHT22;40724;53.196;5.980;2022-07-18T15:19:48;28.10;47.20
54824;DHT22;40724;53.196;5.980;2022-07-18T15:22:14;28.10;47.30
54824;DHT22;40724;53.196;5.980;2022-07-18T15:24:39;28.10;47.30
54824;DHT22;40724;53.196;5.980;2022-07-18T15:27:05;28.10;47.50
54824;DHT22;40724;53.196;5.980;2022-07-18T15:29:31;28.10;47.20
54824;DHT22;40724;53.196;5.980;2022-07-18T15:31:57;28.00;47.30
54824;DHT22;40724;53.196;5.980;2022-07-18T15:34:24;28.00;47.60
54824;DHT22;40724;53.196;5.980;2022-07-18T15:36:50;28.00;47.80
54824;DHT22;40724;53.196;5.980;2022-07-18T15:39:15;28.00;48.20
54824;DHT22;40724;53.196;5.980;2022-07-18T15:41:42;27.90;48.70
54824;DHT22;40724;53.196;5.980;2022-07-18T15:44:11;28.00;49.20
54824;DHT22;40724;53.196;5.980;2022-07-18T15:46:37;28.00;49.20
54824;DHT22;40724;53.196;5.980;2022-07-18T15:49:03;28.10;49.60
54824;DHT22;40724;53.196;5.980;2022-07-18T15:51:29;28.10;49.90
54824;DHT22;40724;53.196;5.980;2022-07-18T15:53:55;28.10;49.50
54824;DHT22;40724;53.196;5.980;2022-07-18T15:56:21;28.10;48.90
54824;DHT22;40724;53.196;5.980;2022-07-18T15:58:47;28.20;49.00
54824;DHT22;40724;53.196;5.980;2022-07-18T16:01:13;28.20;48.60
54824;DHT22;40724;53.196;5.980;2022-07-18T16:03:39;28.20;48.80
54824;DHT22;40724;53.196;5.980;2022-07-18T16:06:04;28.20;49.00
54824;DHT22;40724;53.196;5.980;2022-07-18T16:08:30;28.30;48.60
54824;DHT22;40724;53.196;5.980;2022-07-18T16:10:56;28.30;48.00
54824;DHT22;40724;53.196;5.980;2022-07-18T16:13:22;28.30;48.10
54824;DHT22;40724;53.196;5.980;2022-07-18T16:15:48;28.30;47.60
54824;DHT22;40724;53.196;5.980;2022-07-18T16:18:14;28.40;47.70
54824;DHT22;40724;53.196;5.980;2022-07-18T16:20:41;28.40;47.80
54824;DHT22;40724;53.196;5.980;2022-07-18T16:23:06;28.40;47.40
54824;DHT22;40724;53.196;5.980;2022-07-18T16:25:33;28.50;47.90
54824;DHT22;40724;53.196;5.980;2022-07-18T16:27:59;28.60;47.40
54824;DHT22;40724;53.196;5.980;2022-07-18T16:30:26;28.60;47.50
54824;DHT22;40724;53.196;5.980;2022-07-18T16:32:52;28.60;46.70
54824;DHT22;40724;53.196;5.980;2022-07-18T16:35:18;28.60;46.40
54824;DHT22;40724;53.196;5.980;2022-07-18T16:37:45;28.60;46.60
54824;DHT22;40724;53.196;5.980;2022-07-18T16:40:12;28.60;47.00
54824;DHT22;40724;53.196;5.980;2022-07-18T16:42:38;28.70;47.20
54824;DHT22;40724;53.196;5.980;2022-07-18T16:45:08;28.70;46.80
54824;DHT22;40724;53.196;5.980;2022-07-18T16:47:35;28.70;46.70
54824;DHT22;40724;53.196;5.980;2022-07-18T16:50:02;28.70;47.00
54824;DHT22;40724;53.196;5.980;2022-07-18T16:52:29;28.70;47.20
54824;DHT22;40724;53.196;5.980;2022-07-18T16:54:55;28.70;47.10
54824;DHT22;40724;53.196;5.980;2022-07-18T16:57:21;28.70;47.00
